Terminal Aerodrome Forecast
Issued by NWS Sterling, VA

Current Version | Previous Version | Graphics & Text | Print | Product List | Glossary On
Versions: 1 2 3 4 5 6 7 8 9 10 11 12 13 14 15 16 17 18 19 20 21 22 23 24 25 26
000
FTUS41 KLWX 240159 AAD
TAFDCA
TAF AMD
KDCA 240159Z 2402/2424 06006KT P6SM -RA OVC025
     FM240400 05005KT P6SM -RA BKN015 OVC025
     FM240900 02006KT P6SM BKN010 OVC025
     FM241200 03005KT P6SM OVC025
     FM241500 08006KT P6SM SCT025 OVC050
     FM241800 12007KT P6SM SCT025 BKN035
     FM242200 13009KT P6SM OVC025=

USA.gov is the U.S. government's official web portal to all federal, state and local government web resources and services.